createdAt,value
2023-08-29T00:02:04.617Z,13.03
2023-08-29T00:04:33.941Z,12.98
2023-08-29T00:07:02.399Z,12.82
2023-08-29T00:09:31.286Z,12.86
2023-08-29T00:11:59.253Z,12.87
2023-08-29T00:14:27.879Z,12.74
2023-08-29T00:16:55.906Z,12.78
2023-08-29T00:19:23.991Z,12.58
2023-08-29T00:21:54.228Z,12.65
2023-08-29T00:24:22.054Z,12.67
2023-08-29T00:26:50.449Z,12.64
2023-08-29T00:29:18.841Z,12.58
2023-08-29T00:31:46.898Z,12.53
2023-08-29T00:34:17.213Z,12.50
2023-08-29T00:36:45.238Z,12.53
2023-08-29T00:39:15.727Z,12.64
2023-08-29T00:41:46.244Z,12.53
2023-08-29T00:44:14.714Z,12.53
2023-08-29T00:46:43.536Z,12.55
2023-08-29T00:49:12.402Z,12.45
2023-08-29T00:51:41.973Z,12.41
2023-08-29T00:54:10.713Z,12.49
2023-08-29T00:56:41.352Z,12.35
2023-08-29T00:59:10.551Z,12.24
2023-08-29T01:01:38.604Z,12.20
2023-08-29T01:04:08.016Z,12.26
2023-08-29T01:06:37.530Z,12.34
2023-08-29T01:09:07.907Z,12.29
2023-08-29T01:11:47.895Z,12.23
2023-08-29T01:14:25.663Z,12.27
2023-08-29T01:17:01.711Z,12.38
2023-08-29T01:19:31.003Z,12.32
2023-08-29T01:22:23.920Z,12.24
2023-08-29T01:24:59.394Z,12.24
2023-08-29T01:27:30.897Z,12.33
2023-08-29T01:30:00.545Z,12.48
2023-08-29T01:32:29.455Z,12.52
2023-08-29T01:34:59.007Z,12.64
2023-08-29T01:37:27.119Z,12.65
2023-08-29T01:39:55.156Z,12.71
2023-08-29T01:42:24.100Z,12.74
2023-08-29T01:44:53.673Z,12.69
2023-08-29T01:47:22.762Z,12.76
2023-08-29T01:49:52.136Z,12.81
2023-08-29T01:52:20.805Z,12.73
2023-08-29T01:54:48.938Z,12.59
2023-08-29T01:57:21.946Z,12.76
2023-08-29T01:59:50.864Z,12.59
2023-08-29T02:02:21.774Z,12.79
2023-08-29T02:04:49.786Z,12.89
2023-08-29T02:07:17.746Z,12.89
2023-08-29T02:09:46.190Z,12.92
2023-08-29T02:12:14.306Z,12.97
2023-08-29T02:14:43.647Z,12.86
2023-08-29T02:17:11.724Z,12.93
2023-08-29T02:19:41.513Z,12.90
2023-08-29T02:22:09.779Z,12.98
2023-08-29T02:24:38.184Z,12.86
2023-08-29T02:27:06.802Z,12.89
2023-08-29T02:29:35.198Z,13.02
2023-08-29T02:32:04.290Z,12.93
2023-08-29T02:34:32.265Z,12.82
2023-08-29T02:37:02.540Z,12.73
2023-08-29T02:39:31.673Z,12.86
2023-08-29T02:41:59.902Z,12.74
2023-08-29T02:44:29.173Z,12.77
2023-08-29T02:46:57.184Z,12.83
2023-08-29T02:49:25.732Z,12.78
2023-08-29T02:51:53.744Z,12.70
2023-08-29T02:54:23.135Z,12.68
2023-08-29T02:56:52.702Z,12.68
2023-08-29T02:59:20.681Z,12.70
2023-08-29T03:01:50.367Z,12.68
2023-08-29T03:04:18.401Z,12.73
2023-08-29T03:06:47.904Z,12.83
2023-08-29T03:09:15.916Z,12.81
2023-08-29T03:11:45.779Z,12.77
2023-08-29T03:14:14.367Z,12.73
2023-08-29T03:16:42.400Z,12.93
2023-08-29T03:19:11.318Z,12.89
2023-08-29T03:21:39.793Z,12.93
2023-08-29T03:24:09.291Z,12.87
2023-08-29T03:26:37.968Z,12.99
2023-08-29T03:29:07.346Z,13.02
2023-08-29T03:31:35.527Z,13.05
2023-08-29T03:34:04.888Z,13.01
2023-08-29T03:36:32.897Z,12.92
2023-08-29T03:39:01.346Z,12.99
2023-08-29T03:41:30.470Z,12.97
2023-08-29T03:43:59.382Z,12.89
2023-08-29T03:46:29.158Z,12.95
2023-08-29T03:48:59.733Z,12.99
2023-08-29T03:51:27.773Z,12.89
2023-08-29T03:53:55.762Z,12.85
2023-08-29T03:56:25.516Z,12.83
2023-08-29T03:58:54.176Z,12.72
2023-08-29T04:01:23.142Z,12.70
2023-08-29T04:03:54.333Z,12.64
2023-08-29T04:06:23.761Z,12.62
2023-08-29T04:08:51.795Z,12.68
2023-08-29T04:11:20.240Z,12.71
2023-08-29T04:13:48.292Z,12.69
2023-08-29T04:16:16.796Z,12.55
2023-08-29T04:18:45.596Z,12.54
2023-08-29T04:21:14.958Z,12.43
2023-08-29T04:23:43.966Z,12.38
2023-08-29T04:26:12.960Z,12.43
2023-08-29T04:28:40.955Z,12.46
2023-08-29T04:31:10.635Z,12.37
2023-08-29T04:33:38.828Z,12.41
2023-08-29T04:36:07.429Z,12.34
2023-08-29T04:38:37.707Z,12.37
2023-08-29T04:41:06.143Z,12.42
2023-08-29T04:43:34.115Z,12.40
2023-08-29T04:46:03.139Z,12.51
2023-08-29T04:48:31.250Z,12.42
2023-08-29T04:51:00.131Z,12.40
2023-08-29T04:53:28.218Z,12.48
2023-08-29T04:56:02.821Z,12.52
2023-08-29T04:58:35.713Z,12.53
2023-08-29T05:01:05.331Z,12.55
2023-08-29T05:03:34.018Z,12.65
2023-08-29T05:06:02.090Z,12.72
2023-08-29T05:08:36.372Z,12.73
2023-08-29T05:11:07.552Z,12.72
2023-08-29T05:13:37.119Z,12.76
2023-08-29T05:16:06.666Z,12.82
2023-08-29T05:18:35.284Z,12.80
2023-08-29T05:21:05.182Z,12.81
2023-08-29T05:23:33.158Z,12.81
2023-08-29T05:26:02.042Z,12.87
2023-08-29T05:28:31.842Z,12.82
2023-08-29T05:30:59.632Z,12.89
2023-08-29T05:33:28.625Z,13.02
2023-08-29T05:35:56.584Z,13.05
2023-08-29T05:38:28.903Z,13.16
2023-08-29T05:40:57.491Z,13.16
2023-08-29T05:43:26.502Z,13.13
2023-08-29T05:45:58.354Z,13.14
2023-08-29T05:48:26.922Z,13.17
2023-08-29T05:50:55.368Z,13.22
2023-08-29T05:53:23.338Z,13.13
2023-08-29T05:55:52.296Z,13.24
2023-08-29T05:58:22.792Z,13.23
2023-08-29T06:00:52.019Z,13.21
2023-08-29T06:03:23.250Z,13.14
2023-08-29T06:05:52.572Z,13.17
2023-08-29T06:08:20.782Z,13.29
2023-08-29T06:10:49.040Z,13.39
2023-08-29T06:13:17.954Z,13.45
2023-08-29T06:15:46.009Z,13.50
2023-08-29T06:18:14.122Z,13.59
2023-08-29T06:20:44.495Z,13.66
2023-08-29T06:23:12.652Z,13.65
2023-08-29T06:25:40.801Z,13.67
2023-08-29T06:28:09.378Z,13.63
2023-08-29T06:30:38.363Z,13.72
2023-08-29T06:33:08.097Z,13.95
2023-08-29T06:35:38.995Z,14.05
2023-08-29T06:38:09.791Z,14.15
2023-08-29T06:40:38.151Z,14.12
2023-08-29T06:43:07.006Z,13.89
2023-08-29T06:45:36.032Z,14.09
2023-08-29T06:48:04.256Z,14.26
2023-08-29T06:50:32.660Z,14.28
2023-08-29T06:53:02.057Z,14.40
2023-08-29T06:55:33.079Z,14.34
2023-08-29T06:58:02.048Z,14.53
2023-08-29T07:00:30.560Z,14.48
2023-08-29T07:02:58.610Z,14.60
2023-08-29T07:05:28.109Z,14.68
2023-08-29T07:07:56.927Z,14.58
2023-08-29T07:10:25.327Z,14.57
2023-08-29T07:12:55.572Z,14.53
2023-08-29T07:15:23.937Z,14.55
2023-08-29T07:17:52.419Z,14.68
2023-08-29T07:20:20.969Z,14.78
2023-08-29T07:22:48.985Z,14.74
2023-08-29T07:25:21.406Z,14.82
2023-08-29T07:27:49.425Z,14.94
2023-08-29T07:30:18.776Z,14.53
2023-08-29T07:32:47.451Z,14.92
2023-08-29T07:35:15.636Z,15.09
2023-08-29T07:37:43.930Z,15.25
2023-08-29T07:40:12.920Z,15.39
2023-08-29T07:42:40.946Z,15.01
2023-08-29T07:45:10.646Z,15.52
2023-08-29T07:47:39.883Z,15.75
2023-08-29T07:50:09.033Z,15.31
2023-08-29T07:52:40.329Z,15.45
2023-08-29T07:55:10.743Z,15.76
2023-08-29T07:57:39.331Z,15.39
2023-08-29T08:00:11.184Z,15.61
2023-08-29T08:02:41.778Z,15.77
2023-08-29T08:05:12.159Z,15.63
2023-08-29T08:07:40.465Z,15.74
2023-08-29T08:10:10.609Z,15.52
2023-08-29T08:12:39.867Z,15.92
2023-08-29T08:15:09.536Z,15.98
2023-08-29T08:17:38.457Z,16.20
2023-08-29T08:20:09.593Z,16.11
2023-08-29T08:22:39.179Z,16.23
2023-08-29T08:25:08.735Z,16.30
2023-08-29T08:27:37.957Z,16.29
2023-08-29T08:30:09.226Z,16.30
2023-08-29T08:32:37.839Z,16.12
2023-08-29T08:35:08.949Z,16.29
2023-08-29T08:37:38.416Z,15.96
2023-08-29T08:40:10.718Z,16.22
2023-08-29T08:42:41.543Z,15.91
2023-08-29T08:45:10.413Z,16.46
2023-08-29T08:47:39.393Z,16.37
2023-08-29T08:50:11.140Z,16.23
2023-08-29T08:52:41.894Z,16.43
2023-08-29T08:55:11.498Z,16.48
2023-08-29T08:57:39.765Z,16.80
2023-08-29T09:00:10.221Z,17.12
2023-08-29T09:02:39.607Z,17.19
2023-08-29T09:05:11.002Z,16.83
2023-08-29T09:07:42.992Z,17.06
2023-08-29T09:10:13.262Z,17.42
2023-08-29T09:12:49.238Z,17.78
2023-08-29T09:15:20.781Z,17.56
2023-08-29T09:17:49.935Z,17.59
2023-08-29T09:20:20.174Z,17.94
2023-08-29T09:22:49.749Z,17.77
2023-08-29T09:25:17.937Z,17.61
2023-08-29T09:27:48.671Z,17.31
2023-08-29T09:30:18.369Z,17.12
2023-08-29T09:32:48.703Z,17.14
2023-08-29T09:35:20.877Z,17.53
2023-08-29T09:37:53.800Z,17.60
2023-08-29T09:42:55.960Z,17.67
2023-08-29T09:45:24.357Z,17.59
2023-08-29T09:47:56.600Z,17.57
2023-08-29T09:50:27.316Z,17.53
2023-08-29T09:52:56.543Z,17.77
2023-08-29T09:55:25.381Z,17.90
2023-08-29T09:57:55.053Z,18.05
2023-08-29T10:00:24.465Z,18.26
2023-08-29T10:02:56.807Z,18.10
2023-08-29T10:05:31.008Z,18.05
2023-08-29T10:08:03.186Z,18.28
2023-08-29T10:10:32.275Z,18.23
2023-08-29T10:13:01.726Z,18.39
2023-08-29T10:15:38.627Z,18.19
2023-08-29T10:18:08.170Z,18.34
2023-08-29T10:20:41.419Z,18.41
2023-08-29T10:23:12.231Z,18.51
2023-08-29T10:25:41.632Z,18.36
2023-08-29T10:28:12.149Z,18.27
2023-08-29T10:30:45.116Z,18.47
2023-08-29T10:33:13.821Z,18.65
2023-08-29T10:35:43.894Z,18.80
2023-08-29T10:38:16.758Z,19.05
2023-08-29T10:40:45.761Z,18.66
2023-08-29T10:43:21.890Z,18.33
2023-08-29T10:45:51.292Z,18.71
2023-08-29T10:48:20.235Z,18.69
2023-08-29T10:51:12.351Z,19.08
2023-08-29T10:53:43.547Z,18.26
2023-08-29T10:56:11.903Z,18.83
2023-08-29T10:58:41.391Z,19.07
2023-08-29T11:01:29.848Z,19.03
2023-08-29T11:03:59.803Z,19.30
2023-08-29T11:06:53.585Z,19.45
2023-08-29T11:09:23.504Z,19.71
2023-08-29T11:12:09.490Z,19.41
2023-08-29T11:15:01.446Z,19.78
2023-08-29T11:17:30.400Z,20.32
2023-08-29T11:20:02.198Z,20.08
2023-08-29T11:22:32.923Z,19.58
2023-08-29T11:25:01.234Z,19.25
2023-08-29T11:27:30.885Z,19.21
2023-08-29T11:30:17.947Z,19.52
2023-08-29T11:32:52.222Z,19.97
2023-08-29T11:35:21.994Z,19.76
2023-08-29T11:37:51.372Z,20.13
2023-08-29T11:40:26.613Z,19.91
2023-08-29T11:43:29.814Z,20.11
2023-08-29T11:46:02.940Z,19.94
2023-08-29T11:48:33.840Z,19.89
2023-08-29T11:51:04.729Z,20.23
2023-08-29T11:53:36.947Z,20.39
2023-08-29T11:56:06.993Z,20.39
2023-08-29T11:58:36.596Z,19.87
2023-08-29T12:01:06.434Z,20.41
2023-08-29T12:03:38.023Z,20.11
2023-08-29T12:06:13.260Z,19.97
2023-08-29T12:08:45.033Z,20.76
2023-08-29T12:11:16.639Z,20.84
2023-08-29T12:14:01.145Z,20.64
2023-08-29T12:16:29.697Z,20.77
2023-08-29T12:19:07.590Z,20.85
2023-08-29T12:21:35.593Z,21.17
2023-08-29T12:24:13.284Z,21.28
2023-08-29T12:26:42.029Z,20.81
2023-08-29T12:29:11.053Z,20.72
2023-08-29T12:31:39.016Z,20.96
2023-08-29T12:34:07.436Z,20.91
2023-08-29T12:36:36.319Z,20.66
2023-08-29T12:39:04.488Z,21.00
2023-08-29T12:41:34.789Z,21.11
2023-08-29T12:44:04.206Z,21.18
2023-08-29T12:46:32.634Z,21.33
2023-08-29T12:49:01.514Z,22.22
2023-08-29T12:51:29.505Z,21.97
2023-08-29T12:53:58.543Z,22.32
2023-08-29T12:56:26.546Z,21.60
2023-08-29T12:58:56.326Z,22.10
2023-08-29T13:01:29.218Z,22.56
2023-08-29T13:03:57.689Z,22.19
2023-08-29T13:06:27.112Z,21.88
2023-08-29T13:08:55.243Z,22.25
2023-08-29T13:11:23.824Z,23.86
2023-08-29T13:13:52.284Z,24.75
2023-08-29T13:16:32.093Z,25.43
2023-08-29T13:19:01.041Z,23.01
2023-08-29T13:21:29.622Z,24.34
2023-08-29T13:23:58.285Z,22.81
2023-08-29T13:26:26.668Z,24.66
2023-08-29T13:28:55.115Z,23.47
2023-08-29T13:31:26.233Z,21.71
2023-08-29T13:33:56.455Z,20.66
2023-08-29T13:36:25.518Z,20.89
2023-08-29T13:38:53.518Z,20.67
2023-08-29T13:41:21.938Z,20.02
2023-08-29T13:43:51.086Z,20.74
2023-08-29T13:46:19.063Z,21.20
2023-08-29T13:48:49.319Z,21.84
2023-08-29T13:51:17.280Z,21.59
2023-08-29T13:53:47.168Z,22.08
2023-08-29T13:56:15.475Z,23.14
2023-08-29T13:58:45.628Z,22.39
2023-08-29T14:01:15.748Z,21.46
2023-08-29T14:03:44.911Z,21.40
2023-08-29T14:06:14.636Z,23.87
2023-08-29T14:08:43.050Z,21.89
2023-08-29T14:11:11.494Z,21.98
2023-08-29T14:13:39.448Z,21.79
2023-08-29T14:16:07.507Z,20.48
2023-08-29T14:18:36.046Z,21.11
2023-08-29T14:21:04.919Z,20.29
2023-08-29T14:23:35.204Z,20.15
2023-08-29T14:26:03.204Z,20.80
2023-08-29T14:28:32.121Z,21.45
2023-08-29T14:31:00.286Z,21.74
2023-08-29T14:33:28.268Z,21.44
2023-08-29T14:35:57.586Z,22.62
2023-08-29T14:38:25.733Z,22.10
2023-08-29T14:40:55.558Z,23.01
2023-08-29T14:43:23.586Z,21.81
2023-08-29T14:45:53.061Z,23.00
2023-08-29T14:48:21.522Z,24.86
2023-08-29T14:50:49.504Z,25.38
2023-08-29T14:53:18.367Z,25.69
2023-08-29T14:55:46.298Z,28.10
2023-08-29T14:58:16.086Z,27.42
2023-08-29T15:00:45.994Z,27.25
2023-08-29T15:03:14.735Z,27.99
2023-08-29T15:05:43.158Z,27.99
2023-08-29T15:08:11.667Z,26.76
2023-08-29T15:10:40.607Z,26.19
2023-08-29T15:13:08.639Z,25.54
2023-08-29T15:15:40.313Z,25.45
2023-08-29T15:18:09.657Z,26.34
2023-08-29T15:20:40.101Z,28.11
2023-08-29T15:23:09.395Z,25.34
2023-08-29T15:25:37.178Z,24.24
2023-08-29T15:28:06.223Z,23.46
2023-08-29T15:30:35.386Z,22.33
2023-08-29T15:33:05.841Z,21.36
2023-08-29T15:35:34.297Z,22.22
2023-08-29T15:38:02.276Z,24.88
2023-08-29T15:40:30.210Z,23.41
2023-08-29T15:43:00.668Z,24.72
2023-08-29T15:45:29.130Z,25.50
2023-08-29T15:47:58.491Z,25.67
2023-08-29T15:50:28.106Z,25.59
2023-08-29T15:52:56.632Z,26.45
2023-08-29T15:55:25.295Z,26.65
2023-08-29T15:57:53.278Z,26.02
2023-08-29T16:00:22.441Z,25.39
2023-08-29T16:02:51.183Z,24.51
2023-08-29T16:05:22.335Z,25.34
2023-08-29T16:07:52.267Z,24.76
2023-08-29T16:10:20.339Z,24.68
2023-08-29T16:12:49.289Z,21.70
2023-08-29T16:15:17.907Z,21.26
2023-08-29T16:17:46.909Z,20.15
2023-08-29T16:20:16.090Z,19.67
2023-08-29T16:22:44.249Z,18.92
2023-08-29T16:25:14.258Z,19.08
2023-08-29T16:27:42.370Z,19.05
2023-08-29T16:30:12.416Z,18.78
2023-08-29T16:32:41.486Z,18.61
2023-08-29T16:35:10.517Z,18.72
2023-08-29T16:37:39.817Z,18.41
2023-08-29T16:40:09.308Z,18.23
2023-08-29T16:42:39.707Z,18.40
2023-08-29T16:45:10.441Z,18.28
2023-08-29T16:47:41.580Z,18.02
2023-08-29T16:50:10.598Z,17.77
2023-08-29T16:52:38.570Z,17.73
2023-08-29T16:55:08.609Z,17.53
2023-08-29T16:57:36.651Z,17.68
2023-08-29T17:00:11.897Z,17.76
2023-08-29T17:02:40.041Z,17.59
2023-08-29T17:05:10.275Z,17.65
2023-08-29T17:07:38.258Z,17.57
2023-08-29T17:10:07.997Z,17.42
2023-08-29T17:12:36.088Z,17.22
2023-08-29T17:15:07.624Z,17.24
2023-08-29T17:17:36.019Z,17.29
2023-08-29T17:20:04.633Z,17.39
2023-08-29T17:22:33.545Z,17.55
2023-08-29T17:25:03.297Z,17.26
2023-08-29T17:27:32.306Z,17.34
2023-08-29T17:30:06.324Z,17.09
2023-08-29T17:32:37.815Z,17.38
2023-08-29T17:49:56.646Z,17.05
2023-08-29T17:52:25.135Z,17.05
2023-08-29T17:54:53.470Z,17.04
2023-08-29T17:57:22.543Z,16.66
2023-08-29T17:59:55.493Z,16.54
2023-08-29T18:02:25.148Z,16.43
2023-08-29T18:04:55.407Z,16.42
2023-08-29T18:07:24.216Z,16.39
2023-08-29T18:10:08.141Z,16.29
2023-08-29T18:12:38.800Z,16.18
2023-08-29T18:15:08.501Z,16.01
2023-08-29T18:17:37.763Z,15.95
2023-08-29T18:20:09.623Z,15.91
2023-08-29T18:22:38.414Z,15.82
2023-08-29T18:25:08.175Z,15.77
2023-08-29T18:27:37.687Z,15.65
2023-08-29T18:30:07.133Z,15.64
2023-08-29T18:32:36.744Z,15.48
2023-08-29T18:35:05.496Z,15.45
2023-08-29T18:37:37.423Z,15.38
2023-08-29T18:40:10.858Z,15.32
2023-08-29T18:42:40.977Z,15.32
2023-08-29T18:45:11.182Z,15.17
2023-08-29T18:47:40.572Z,15.28
2023-08-29T18:50:11.107Z,15.07
2023-08-29T18:55:36.975Z,14.98
2023-08-29T18:58:13.933Z,14.88
2023-08-29T19:00:51.002Z,14.74
2023-08-29T19:03:22.550Z,14.61
2023-08-29T19:05:55.116Z,14.71
2023-08-29T19:08:35.324Z,14.77
2023-08-29T19:11:11.995Z,14.78
2023-08-29T19:13:41.772Z,14.87
2023-08-29T19:16:26.542Z,14.96
2023-08-29T19:18:56.166Z,14.79
2023-08-29T19:21:26.196Z,14.77
2023-08-29T19:23:59.517Z,14.59
2023-08-29T19:26:30.909Z,14.68
2023-08-29T19:29:06.907Z,14.64
2023-08-29T19:31:36.162Z,14.67
2023-08-29T19:34:06.167Z,14.58
2023-08-29T19:36:34.958Z,14.46
2023-08-29T19:39:16.910Z,14.45
2023-08-29T19:41:52.317Z,14.45
2023-08-29T19:44:25.254Z,14.23
2023-08-29T19:47:06.788Z,14.26
2023-08-29T19:49:39.278Z,14.29
2023-08-29T19:52:08.642Z,14.31
2023-08-29T19:54:38.821Z,14.31
2023-08-29T19:57:10.643Z,14.40
2023-08-29T19:59:41.720Z,14.43
2023-08-29T20:02:18.516Z,14.33
2023-08-29T20:04:49.814Z,14.13
2023-08-29T20:07:20.382Z,14.20
2023-08-29T20:09:50.554Z,14.08
2023-08-29T20:12:21.267Z,13.95
2023-08-29T20:14:54.014Z,14.09
2023-08-29T20:17:23.357Z,14.07
2023-08-29T20:19:52.596Z,13.98
2023-08-29T20:28:44.238Z,13.83
2023-08-29T20:31:12.577Z,13.94
2023-08-29T20:33:41.109Z,13.99
2023-08-29T20:36:09.194Z,14.09
2023-08-29T20:38:37.806Z,14.02
2023-08-29T20:41:05.894Z,14.04
2023-08-29T20:43:34.830Z,13.88
2023-08-29T20:46:08.765Z,13.78
2023-08-29T20:48:36.907Z,13.74
2023-08-29T20:51:05.159Z,13.77
2023-08-29T20:53:36.271Z,14.04
2023-08-29T20:56:04.739Z,14.03
2023-08-29T20:58:33.131Z,14.23
2023-08-29T21:01:02.851Z,14.28
2023-08-29T21:03:33.591Z,14.33
2023-08-29T21:06:02.561Z,14.16
2023-08-29T21:08:30.778Z,14.05
2023-08-29T21:10:58.789Z,14.12
2023-08-29T21:13:27.600Z,14.15
2023-08-29T21:15:56.214Z,14.31
2023-08-29T21:18:25.107Z,14.32
2023-08-29T21:20:56.133Z,14.36
2023-08-29T21:23:24.924Z,14.28
2023-08-29T21:25:53.239Z,14.25
2023-08-29T21:28:23.724Z,14.23
2023-08-29T21:30:54.179Z,14.20
2023-08-29T21:33:23.079Z,14.15
2023-08-29T21:35:55.149Z,14.12
2023-08-29T21:38:23.525Z,14.06
2023-08-29T21:40:53.022Z,14.03
2023-08-29T21:43:22.369Z,14.02
2023-08-29T21:45:54.936Z,14.02
2023-08-29T21:48:25.422Z,14.01
2023-08-29T21:50:56.606Z,13.98
2023-08-29T21:53:25.340Z,14.02
2023-08-29T21:55:54.293Z,14.06
2023-08-29T21:58:22.850Z,14.10
2023-08-29T22:00:54.002Z,13.95
2023-08-29T22:03:24.729Z,13.81
2023-08-29T22:05:53.815Z,13.83
2023-08-29T22:08:23.412Z,13.88
2023-08-29T22:10:52.797Z,13.82
2023-08-29T22:13:20.817Z,13.79
2023-08-29T22:15:50.902Z,13.67
2023-08-29T22:18:19.179Z,13.61
2023-08-29T22:20:47.577Z,13.56
2023-08-29T22:23:15.624Z,13.62
2023-08-29T22:25:46.077Z,13.59
2023-08-29T22:28:14.141Z,13.67
2023-08-29T22:30:42.660Z,13.64
2023-08-29T22:33:11.278Z,13.66
2023-08-29T22:35:41.124Z,13.61
2023-08-29T22:38:11.136Z,13.59
2023-08-29T22:40:39.213Z,13.50
2023-08-29T22:43:09.252Z,13.52
2023-08-29T22:45:38.023Z,13.53
2023-08-29T22:48:08.028Z,13.39
2023-08-29T22:50:37.707Z,13.40
2023-08-29T22:53:07.163Z,13.34
2023-08-29T22:55:37.296Z,13.30
2023-08-29T22:58:06.678Z,13.29
2023-08-29T23:00:37.746Z,13.37
2023-08-29T23:03:06.820Z,13.23
2023-08-29T23:05:35.237Z,13.17
2023-08-29T23:08:04.397Z,13.13
2023-08-29T23:10:32.923Z,12.99
2023-08-29T23:13:01.903Z,12.98
2023-08-29T23:15:30.005Z,12.82
2023-08-29T23:17:59.501Z,12.72
2023-08-29T23:20:28.490Z,12.66
2023-08-29T23:22:56.458Z,12.59
2023-08-29T23:25:26.054Z,12.56
2023-08-29T23:27:54.045Z,12.59
2023-08-29T23:30:22.516Z,12.48
2023-08-29T23:32:50.604Z,12.36
2023-08-29T23:35:21.688Z,12.33
2023-08-29T23:37:50.646Z,12.34
2023-08-29T23:40:20.385Z,12.37
2023-08-29T23:42:48.865Z,12.42
2023-08-29T23:45:17.492Z,12.24
2023-08-29T23:47:45.577Z,12.28
2023-08-29T23:50:13.548Z,12.37
2023-08-29T23:52:43.814Z,12.38
2023-08-29T23:55:11.668Z,12.48
2023-08-29T23:57:39.667Z,12.42
